createdAt,value
2019-02-09T00:01:03.085Z,74.20
2019-02-09T00:03:30.386Z,74.20
2019-02-09T00:05:57.816Z,74.00
2019-02-09T00:08:26.206Z,73.80
2019-02-09T00:10:53.587Z,73.80
2019-02-09T00:13:20.580Z,73.60
2019-02-09T00:15:47.744Z,73.70
2019-02-09T00:18:14.963Z,73.50
2019-02-09T00:20:42.623Z,73.50
2019-02-09T00:23:09.767Z,73.50
2019-02-09T00:25:37.455Z,73.60
2019-02-09T00:28:05.243Z,73.40
2019-02-09T00:30:32.823Z,73.50
2019-02-09T00:33:00.638Z,73.30
2019-02-09T00:35:28.287Z,73.50
2019-02-09T00:37:57.179Z,73.40
2019-02-09T00:40:24.466Z,73.50
2019-02-09T00:42:51.951Z,73.30
2019-02-09T00:45:20.283Z,73.30
2019-02-09T00:47:47.831Z,73.50
2019-02-09T00:50:16.359Z,73.60
2019-02-09T00:52:43.496Z,74.60
2019-02-09T00:55:12.523Z,75.20
2019-02-09T00:57:40.837Z,76.00
2019-02-09T01:00:12.975Z,76.10
2019-02-09T01:02:41.396Z,76.10
2019-02-09T01:05:09.592Z,76.00
2019-02-09T01:07:36.589Z,76.50
2019-02-09T01:10:07.377Z,76.90
2019-02-09T01:12:35.828Z,77.40
2019-02-09T01:15:05.612Z,77.70
2019-02-09T01:17:32.715Z,78.40
2019-02-09T01:19:59.692Z,78.10
2019-02-09T01:22:26.859Z,78.00
2019-02-09T01:24:53.919Z,78.20
2019-02-09T01:27:22.641Z,78.60
2019-02-09T01:29:49.635Z,78.70
2019-02-09T01:32:17.407Z,78.80
2019-02-09T01:34:44.643Z,78.70
2019-02-09T01:37:13.271Z,78.90
2019-02-09T01:39:42.083Z,79.40
2019-02-09T01:42:09.396Z,79.60
2019-02-09T01:44:36.411Z,80.00
2019-02-09T01:47:03.759Z,80.30
2019-02-09T01:49:31.183Z,80.10
2019-02-09T01:51:58.175Z,80.00
2019-02-09T01:54:25.881Z,80.40
2019-02-09T01:56:52.967Z,80.50
2019-02-09T01:59:20.344Z,80.80
2019-02-09T02:01:47.479Z,81.10
2019-02-09T02:04:15.691Z,81.70
2019-02-09T02:06:42.740Z,81.60
2019-02-09T02:09:09.876Z,82.20
2019-02-09T02:11:37.391Z,82.30
2019-02-09T02:14:04.599Z,82.50
2019-02-09T02:16:31.677Z,83.00
2019-02-09T02:18:59.695Z,83.20
2019-02-09T02:21:28.520Z,82.90
2019-02-09T02:23:55.981Z,83.30
2019-02-09T02:26:23.111Z,83.50
2019-02-09T02:28:51.652Z,83.40
2019-02-09T02:31:19.868Z,83.30
2019-02-09T02:33:46.751Z,83.40
2019-02-09T02:36:13.847Z,83.50
2019-02-09T02:38:40.974Z,83.70
2019-02-09T02:41:08.090Z,83.60
2019-02-09T02:43:35.122Z,83.60
2019-02-09T02:46:02.263Z,83.90
2019-02-09T02:48:30.298Z,84.10
2019-02-09T02:50:57.932Z,83.90
2019-02-09T02:53:25.091Z,83.20
2019-02-09T02:55:52.603Z,83.60
2019-02-09T02:58:21.213Z,83.80
2019-02-09T03:00:48.221Z,84.00
2019-02-09T03:03:15.812Z,83.80
2019-02-09T03:05:43.625Z,83.90
2019-02-09T03:08:10.697Z,83.90
2019-02-09T03:10:37.819Z,83.90
2019-02-09T03:13:05.657Z,83.80
2019-02-09T03:15:33.801Z,83.90
2019-02-09T03:18:01.834Z,84.20
2019-02-09T03:20:31.126Z,84.70
2019-02-09T03:22:58.855Z,84.50
2019-02-09T03:25:30.157Z,84.70
2019-02-09T03:27:58.019Z,85.10
2019-02-09T03:30:26.125Z,85.00
2019-02-09T03:32:54.336Z,84.90
2019-02-09T03:35:22.647Z,85.80
2019-02-09T03:37:50.371Z,84.80
2019-02-09T03:40:20.418Z,84.50
2019-02-09T03:42:47.835Z,84.70
2019-02-09T03:45:17.499Z,84.70
2019-02-09T03:47:45.553Z,84.80
2019-02-09T03:50:13.831Z,85.50
2019-02-09T03:52:41.183Z,85.20
2019-02-09T03:55:08.457Z,85.30
2019-02-09T03:57:35.603Z,85.30
2019-02-09T04:00:06.830Z,85.40
2019-02-09T04:02:34.389Z,85.50
2019-02-09T04:05:01.960Z,85.40
2019-02-09T04:07:29.419Z,85.30
2019-02-09T04:09:56.549Z,85.40
2019-02-09T04:12:23.514Z,85.50
2019-02-09T04:14:51.259Z,85.40
2019-02-09T04:17:19.363Z,85.50
2019-02-09T04:19:46.388Z,85.50
2019-02-09T04:22:14.192Z,86.20
2019-02-09T04:24:41.183Z,86.00
2019-02-09T04:27:09.207Z,86.20
2019-02-09T04:29:36.946Z,86.50
2019-02-09T04:32:04.038Z,86.80
2019-02-09T04:34:31.453Z,87.00
2019-02-09T04:36:59.251Z,86.90
2019-02-09T04:39:26.259Z,87.20
2019-02-09T04:41:53.743Z,87.60
2019-02-09T04:44:20.900Z,87.80
2019-02-09T04:46:47.999Z,87.40
2019-02-09T04:49:14.984Z,87.50
2019-02-09T04:51:42.303Z,87.80
2019-02-09T04:54:09.831Z,87.70
2019-02-09T04:56:37.259Z,87.50
2019-02-09T04:59:04.377Z,88.00
2019-02-09T05:01:31.413Z,88.20
2019-02-09T05:03:59.862Z,87.90
2019-02-09T05:06:26.856Z,87.90
2019-02-09T05:08:53.965Z,88.10
2019-02-09T05:11:21.283Z,88.20
2019-02-09T05:13:48.169Z,88.50
2019-02-09T05:16:15.397Z,88.50
2019-02-09T05:18:42.251Z,89.00
2019-02-09T05:21:09.471Z,88.40
2019-02-09T05:23:37.052Z,88.60
2019-02-09T05:26:04.813Z,88.80
2019-02-09T05:28:32.239Z,88.70
2019-02-09T05:31:00.003Z,88.80
2019-02-09T05:33:27.431Z,88.40
2019-02-09T05:35:54.411Z,88.90
2019-02-09T05:38:21.459Z,88.70
2019-02-09T05:40:48.852Z,88.90
2019-02-09T05:43:16.463Z,88.90
2019-02-09T05:45:43.619Z,88.80
2019-02-09T05:48:10.809Z,89.00
2019-02-09T05:50:38.917Z,88.80
2019-02-09T05:53:06.676Z,89.00
2019-02-09T05:55:33.823Z,89.00
2019-02-09T05:58:02.327Z,89.30
2019-02-09T06:00:36.558Z,89.30
2019-02-09T06:03:05.452Z,89.20
2019-02-09T06:05:32.759Z,88.90
2019-02-09T06:07:59.901Z,89.20
2019-02-09T06:10:27.007Z,89.20
2019-02-09T06:12:54.603Z,89.00
2019-02-09T06:15:22.675Z,89.40
2019-02-09T06:17:50.159Z,89.20
2019-02-09T06:20:20.881Z,89.30
2019-02-09T06:22:48.519Z,89.20
2019-02-09T06:25:15.621Z,89.20
2019-02-09T06:27:43.092Z,89.30
2019-02-09T06:30:14.737Z,89.40
2019-02-09T06:32:42.243Z,88.90
2019-02-09T06:35:09.659Z,88.90
2019-02-09T06:37:38.923Z,88.90
2019-02-09T06:40:09.060Z,88.70
2019-02-09T06:42:36.078Z,88.50
2019-02-09T06:45:05.688Z,88.20
2019-02-09T06:47:32.700Z,88.30
2019-02-09T06:49:59.849Z,88.20
2019-02-09T06:52:26.931Z,87.80
2019-02-09T06:54:54.716Z,87.50
2019-02-09T06:57:22.931Z,87.70
2019-02-09T06:59:50.440Z,87.80
2019-02-09T07:02:17.463Z,87.60
2019-02-09T07:04:44.367Z,87.60
2019-02-09T07:07:13.439Z,87.10
2019-02-09T07:09:40.577Z,87.10
2019-02-09T07:12:08.799Z,87.70
2019-02-09T07:14:35.852Z,87.30
2019-02-09T07:17:04.193Z,87.30
2019-02-09T07:19:31.749Z,87.00
2019-02-09T07:21:58.863Z,86.90
2019-02-09T07:24:26.007Z,87.30
2019-02-09T07:26:53.647Z,86.80
2019-02-09T07:29:20.869Z,86.90
2019-02-09T07:31:47.855Z,87.00
2019-02-09T07:34:14.865Z,87.40
2019-02-09T07:36:41.956Z,86.90
2019-02-09T07:39:09.776Z,86.80
2019-02-09T07:41:38.467Z,86.80
2019-02-09T07:44:07.331Z,86.80
2019-02-09T07:46:34.360Z,87.00
2019-02-09T07:49:01.923Z,86.80
2019-02-09T07:51:29.055Z,86.80
2019-02-09T07:53:55.959Z,86.50
2019-02-09T07:56:23.558Z,86.40
2019-02-09T07:58:51.608Z,86.70
2019-02-09T08:01:18.736Z,86.40
2019-02-09T08:03:46.824Z,86.50
2019-02-09T08:06:15.418Z,86.80
2019-02-09T08:08:43.684Z,87.10
2019-02-09T08:11:10.743Z,87.10
2019-02-09T08:13:38.459Z,86.90
2019-02-09T08:16:05.575Z,86.80
2019-02-09T08:18:32.855Z,87.10
2019-02-09T08:21:06.852Z,87.50
2019-02-09T08:23:35.456Z,87.30
2019-02-09T08:26:02.840Z,87.70
2019-02-09T08:28:30.104Z,87.60
2019-02-09T08:30:57.126Z,87.80
2019-02-09T08:33:25.383Z,87.60
2019-02-09T08:35:52.739Z,87.10
2019-02-09T08:38:19.720Z,87.20
2019-02-09T08:40:46.966Z,86.90
2019-02-09T08:43:14.417Z,87.10
2019-02-09T08:45:41.567Z,87.00
2019-02-09T08:48:08.944Z,86.80
2019-02-09T08:50:38.999Z,87.10
2019-02-09T08:53:06.248Z,86.50
2019-02-09T08:55:34.140Z,86.40
2019-02-09T08:58:03.753Z,85.80
2019-02-09T09:00:33.321Z,85.40
2019-02-09T09:03:00.491Z,85.40
2019-02-09T09:05:30.273Z,85.40
2019-02-09T09:07:58.073Z,85.20
2019-02-09T09:10:25.828Z,85.10
2019-02-09T09:12:53.811Z,85.70
2019-02-09T09:15:23.922Z,85.40
2019-02-09T09:17:51.313Z,85.50
2019-02-09T09:20:29.865Z,86.10
2019-02-09T09:22:57.282Z,85.20
2019-02-09T09:25:25.779Z,85.00
2019-02-09T09:27:54.364Z,85.60
2019-02-09T09:30:23.566Z,86.00
2019-02-09T09:32:51.731Z,84.80
2019-02-09T09:35:19.459Z,85.50
2019-02-09T09:37:47.235Z,85.40
2019-02-09T09:40:20.603Z,84.30
2019-02-09T09:42:47.790Z,85.10
2019-02-09T09:45:18.292Z,84.70
2019-02-09T09:47:45.648Z,84.30
2019-02-09T09:50:14.865Z,84.40
2019-02-09T09:52:42.953Z,83.80
2019-02-09T09:55:11.502Z,84.30
2019-02-09T09:57:38.855Z,83.60
2019-02-09T10:00:09.404Z,84.50
2019-02-09T10:02:37.375Z,84.50
2019-02-09T10:05:05.752Z,84.50
2019-02-09T10:07:33.464Z,84.50
2019-02-09T10:10:00.514Z,85.40
2019-02-09T10:12:27.740Z,85.10
2019-02-09T10:14:55.154Z,85.20
2019-02-09T10:17:22.665Z,85.80
2019-02-09T10:19:50.327Z,84.90
2019-02-09T10:22:18.049Z,84.40
2019-02-09T10:24:45.154Z,84.80
2019-02-09T10:27:12.543Z,84.30
2019-02-09T10:29:39.563Z,84.20
2019-02-09T10:32:06.940Z,84.40
2019-02-09T10:34:33.950Z,84.30
2019-02-09T10:37:03.156Z,83.30
2019-02-09T10:39:30.183Z,83.60
2019-02-09T10:41:57.707Z,83.70
2019-02-09T10:44:26.341Z,83.50
2019-02-09T10:46:54.468Z,83.10
2019-02-09T10:49:22.193Z,82.50
2019-02-09T10:51:49.208Z,82.80
2019-02-09T10:54:16.927Z,83.00
2019-02-09T10:56:44.472Z,83.30
2019-02-09T10:59:12.512Z,82.80
2019-02-09T11:01:40.791Z,81.90
2019-02-09T11:04:07.955Z,81.50
2019-02-09T11:06:34.935Z,81.20
2019-02-09T11:09:04.359Z,79.50
2019-02-09T11:11:32.295Z,78.90
2019-02-09T11:13:59.719Z,78.30
2019-02-09T11:16:28.728Z,79.40
2019-02-09T11:18:56.108Z,78.10
2019-02-09T11:21:24.025Z,77.10
2019-02-09T11:23:52.552Z,78.60
2019-02-09T11:26:19.811Z,78.60
2019-02-09T11:28:46.735Z,78.40
2019-02-09T11:31:14.819Z,78.80
2019-02-09T11:33:42.156Z,78.50
2019-02-09T11:36:09.480Z,78.70
2019-02-09T11:38:36.447Z,78.50
2019-02-09T11:41:04.147Z,77.80
2019-02-09T11:43:31.355Z,78.30
2019-02-09T11:45:58.516Z,78.40
2019-02-09T11:48:25.631Z,77.50
2019-02-09T11:50:53.719Z,78.40
2019-02-09T11:53:21.952Z,78.00
2019-02-09T11:55:49.855Z,76.50
2019-02-09T11:58:16.876Z,76.50
2019-02-09T12:00:47.009Z,75.50
2019-02-09T12:03:16.254Z,76.00
2019-02-09T12:05:43.959Z,74.60
2019-02-09T12:08:11.067Z,74.20
2019-02-09T12:10:38.190Z,73.90
2019-02-09T12:13:06.566Z,73.10
2019-02-09T12:15:33.893Z,73.00
2019-02-09T12:18:01.510Z,73.50
2019-02-09T12:20:29.212Z,71.80
2019-02-09T12:22:56.512Z,72.60
2019-02-09T12:25:29.433Z,72.60
2019-02-09T12:27:56.843Z,72.20
2019-02-09T12:30:25.883Z,71.80
2019-02-09T12:32:53.182Z,71.50
2019-02-09T12:35:22.239Z,72.30
2019-02-09T12:37:49.418Z,72.80
2019-02-09T12:40:19.016Z,73.90
2019-02-09T12:42:46.325Z,74.30
2019-02-09T12:45:14.747Z,74.00
2019-02-09T12:47:42.747Z,73.60
2019-02-09T12:50:11.511Z,73.30
2019-02-09T12:52:39.244Z,73.20
2019-02-09T12:55:07.135Z,73.00
2019-02-09T12:57:34.291Z,72.00
2019-02-09T13:00:01.422Z,73.00
2019-02-09T13:02:28.375Z,74.10
2019-02-09T13:04:56.179Z,72.40
2019-02-09T13:07:23.285Z,72.10
2019-02-09T13:09:50.859Z,72.00
2019-02-09T13:12:17.839Z,71.90
2019-02-09T13:14:44.867Z,72.80
2019-02-09T13:17:12.391Z,73.20
2019-02-09T13:19:40.327Z,73.50
2019-02-09T13:22:07.715Z,72.20
2019-02-09T13:24:34.596Z,72.10
2019-02-09T13:27:03.531Z,72.50
2019-02-09T13:29:32.612Z,71.80
2019-02-09T13:32:00.824Z,73.00
2019-02-09T13:34:27.859Z,70.40
2019-02-09T13:36:54.995Z,70.70
2019-02-09T13:39:22.399Z,70.70
2019-02-09T13:41:49.559Z,70.50
2019-02-09T13:44:17.552Z,69.60
2019-02-09T13:46:45.148Z,70.30
2019-02-09T13:49:13.939Z,70.70
2019-02-09T13:51:41.176Z,70.40
2019-02-09T13:54:08.184Z,70.30
2019-02-09T13:56:36.493Z,70.80
2019-02-09T13:59:04.152Z,70.20
2019-02-09T14:01:31.268Z,70.50
2019-02-09T14:03:58.291Z,71.10
2019-02-09T14:06:25.280Z,70.70
2019-02-09T14:08:54.383Z,70.30
2019-02-09T14:11:22.916Z,70.90
2019-02-09T14:13:49.931Z,70.20
2019-02-09T14:16:18.231Z,69.60
2019-02-09T14:18:45.223Z,69.70
2019-02-09T14:21:12.544Z,69.50
2019-02-09T14:23:39.983Z,69.70
2019-02-09T14:26:08.116Z,70.10
2019-02-09T14:28:35.244Z,69.60
2019-02-09T14:31:02.984Z,69.30
2019-02-09T14:33:30.009Z,69.10
2019-02-09T14:35:58.089Z,69.00
2019-02-09T14:38:25.692Z,69.90
2019-02-09T14:40:53.123Z,69.60
2019-02-09T14:43:20.642Z,69.40
2019-02-09T14:45:47.998Z,69.60
2019-02-09T14:48:15.371Z,68.10
2019-02-09T14:50:44.044Z,69.00
2019-02-09T14:53:12.547Z,69.10
2019-02-09T14:55:40.258Z,69.30
2019-02-09T14:58:09.483Z,68.00
2019-02-09T15:00:42.286Z,68.40
2019-02-09T15:03:10.648Z,69.10
2019-02-09T15:05:39.282Z,68.90
2019-02-09T15:08:06.594Z,68.40
2019-02-09T15:10:34.807Z,68.50
2019-02-09T15:13:04.399Z,68.40
2019-02-09T15:15:35.218Z,68.80
2019-02-09T15:18:06.967Z,68.80
2019-02-09T15:20:36.736Z,68.90
2019-02-09T15:23:04.874Z,69.40
2019-02-09T15:25:32.315Z,69.60
2019-02-09T15:28:00.032Z,69.40
2019-02-09T15:30:27.804Z,69.90
2019-02-09T15:32:54.915Z,70.70
2019-02-09T15:35:24.103Z,72.70
2019-02-09T15:37:53.185Z,73.40
2019-02-09T15:40:21.243Z,73.50
2019-02-09T15:42:48.344Z,73.20
2019-02-09T15:45:17.199Z,72.80
2019-02-09T15:47:45.693Z,72.90
2019-02-09T15:50:14.779Z,72.70
2019-02-09T15:52:43.788Z,72.60
2019-02-09T15:55:13.144Z,72.40
2019-02-09T15:57:40.603Z,72.50
2019-02-09T16:00:12.892Z,72.90
2019-02-09T16:02:40.204Z,71.80
2019-02-09T16:05:09.135Z,71.40
2019-02-09T16:07:36.999Z,72.60
2019-02-09T16:10:05.699Z,71.70
2019-02-09T16:12:33.857Z,72.30
2019-02-09T16:15:03.212Z,72.60
2019-02-09T16:17:30.235Z,72.80
2019-02-09T16:19:57.099Z,73.10
2019-02-09T16:22:24.127Z,73.30
2019-02-09T16:24:51.255Z,72.80
2019-02-09T16:27:19.555Z,73.20
2019-02-09T16:29:46.699Z,73.10
2019-02-09T16:32:13.804Z,73.30
2019-02-09T16:34:40.914Z,73.40
2019-02-09T16:37:08.069Z,73.40
2019-02-09T16:39:35.030Z,74.20
2019-02-09T16:42:02.959Z,73.90
2019-02-09T16:44:30.291Z,74.10
2019-02-09T16:46:59.452Z,74.30
2019-02-09T16:49:26.591Z,74.30
2019-02-09T16:51:54.095Z,74.80
2019-02-09T16:54:21.135Z,74.90
2019-02-09T16:56:48.380Z,75.30
2019-02-09T16:59:15.359Z,76.30
2019-02-09T17:01:44.408Z,77.10
2019-02-09T17:04:11.619Z,77.60
2019-02-09T17:06:39.082Z,77.50
2019-02-09T17:09:07.723Z,77.80
2019-02-09T17:11:34.883Z,78.00
2019-02-09T17:14:02.716Z,78.00
2019-02-09T17:16:30.912Z,78.20
2019-02-09T17:18:58.291Z,78.00
2019-02-09T17:21:25.318Z,78.00
2019-02-09T17:23:52.213Z,78.00
2019-02-09T17:26:19.519Z,77.50
2019-02-09T17:28:46.795Z,77.70
2019-02-09T17:31:14.908Z,77.80
2019-02-09T17:33:42.523Z,77.10
2019-02-09T17:36:09.595Z,77.10
2019-02-09T17:38:36.754Z,77.10
2019-02-09T17:41:04.556Z,76.40
2019-02-09T17:43:31.680Z,76.30
2019-02-09T17:46:03.087Z,76.40
2019-02-09T17:48:30.323Z,77.20
2019-02-09T17:50:58.023Z,77.10
2019-02-09T17:53:26.778Z,77.20
2019-02-09T17:55:53.876Z,77.30
2019-02-09T17:58:21.177Z,76.90
2019-02-09T18:00:54.585Z,76.00
2019-02-09T18:03:22.131Z,76.40
2019-02-09T18:05:49.535Z,76.50
2019-02-09T18:08:17.491Z,75.70
2019-02-09T18:10:44.505Z,75.50
2019-02-09T18:13:12.048Z,76.70
2019-02-09T18:15:40.289Z,75.50
2019-02-09T18:18:08.248Z,75.40
2019-02-09T18:20:35.803Z,75.60
2019-02-09T18:23:03.911Z,75.50
2019-02-09T18:25:32.599Z,75.20
2019-02-09T18:27:59.570Z,75.30
2019-02-09T18:30:27.119Z,75.30
2019-02-09T18:32:54.608Z,75.90
2019-02-09T18:35:22.457Z,75.50
2019-02-09T18:37:50.737Z,76.10
2019-02-09T18:40:20.132Z,75.70
2019-02-09T18:42:48.656Z,76.00
2019-02-09T18:45:20.875Z,75.40
2019-02-09T18:47:50.287Z,75.30
2019-02-09T18:50:19.308Z,76.20
2019-02-09T18:52:46.694Z,76.00
2019-02-09T18:55:16.524Z,76.10
2019-02-09T18:57:44.053Z,76.50
2019-02-09T19:00:14.112Z,76.80
2019-02-09T19:02:41.596Z,76.90
2019-02-09T19:05:10.399Z,76.70
2019-02-09T19:07:38.631Z,76.70
2019-02-09T19:10:10.150Z,77.00
2019-02-09T19:12:38.275Z,76.90
2019-02-09T19:15:06.412Z,77.10
2019-02-09T19:17:34.023Z,77.00
2019-02-09T19:20:01.252Z,77.20
2019-02-09T19:22:29.107Z,77.50
2019-02-09T19:24:56.215Z,77.60
2019-02-09T19:27:24.095Z,77.70
2019-02-09T19:29:51.383Z,77.90
2019-02-09T19:32:19.775Z,78.30
2019-02-09T19:34:46.924Z,78.40
2019-02-09T19:37:14.995Z,78.50
2019-02-09T19:39:42.024Z,78.60
2019-02-09T19:42:09.238Z,78.30
2019-02-09T19:44:36.791Z,78.70
2019-02-09T19:47:05.199Z,78.50
2019-02-09T19:49:33.698Z,78.70
2019-02-09T19:52:01.906Z,78.60
2019-02-09T19:54:30.041Z,78.60
2019-02-09T19:56:57.792Z,78.40
2019-02-09T19:59:24.936Z,78.30
2019-02-09T20:01:52.531Z,78.40
2019-02-09T20:04:20.483Z,78.40
2019-02-09T20:06:47.492Z,78.50
2019-02-09T20:09:15.257Z,78.70
2019-02-09T20:11:42.282Z,78.80
2019-02-09T20:14:10.132Z,78.90
2019-02-09T20:16:37.624Z,78.80
2019-02-09T20:19:04.795Z,78.70
2019-02-09T20:21:33.114Z,78.80
2019-02-09T20:24:01.632Z,79.00
2019-02-09T20:26:28.619Z,78.90
2019-02-09T20:28:55.779Z,78.70
2019-02-09T20:31:23.195Z,78.50
2019-02-09T20:33:51.004Z,78.30
2019-02-09T20:36:19.103Z,78.40
2019-02-09T20:38:46.627Z,78.50
2019-02-09T20:41:14.100Z,78.80
2019-02-09T20:43:42.025Z,78.70
2019-02-09T20:46:09.196Z,78.80
2019-02-09T20:48:36.195Z,78.70
2019-02-09T20:51:03.831Z,78.90
2019-02-09T20:53:32.593Z,79.10
2019-02-09T20:56:01.402Z,78.80
2019-02-09T20:58:28.583Z,78.60
2019-02-09T21:00:56.705Z,78.60
2019-02-09T21:03:24.643Z,79.00
2019-02-09T21:05:51.780Z,78.40
2019-02-09T21:08:20.117Z,78.20
2019-02-09T21:10:47.122Z,78.80
2019-02-09T21:13:14.257Z,77.90
2019-02-09T21:15:42.252Z,78.20
2019-02-09T21:18:10.872Z,77.40
2019-02-09T21:20:38.668Z,77.90
2019-02-09T21:23:06.324Z,77.90
2019-02-09T21:25:34.957Z,78.10
2019-02-09T21:28:02.139Z,78.30
2019-02-09T21:30:30.217Z,78.10
2019-02-09T21:32:59.328Z,77.80
2019-02-09T21:35:27.281Z,78.30
2019-02-09T21:37:57.932Z,78.80
2019-02-09T21:40:27.012Z,78.60
2019-02-09T21:42:54.365Z,78.40
2019-02-09T21:45:22.995Z,78.20
2019-02-09T21:47:51.943Z,77.90
2019-02-09T21:50:25.525Z,78.00
2019-02-09T21:52:54.267Z,78.50
2019-02-09T21:55:21.977Z,78.00
2019-02-09T21:57:49.681Z,77.90
2019-02-09T22:00:25.130Z,77.90
2019-02-09T22:02:52.647Z,77.70
2019-02-09T22:05:20.120Z,77.80
2019-02-09T22:07:47.286Z,77.80
2019-02-09T22:10:17.185Z,77.90
2019-02-09T22:12:44.688Z,78.20
2019-02-09T22:15:14.406Z,78.10
2019-02-09T22:17:41.988Z,78.10
2019-02-09T22:20:12.299Z,78.10
2019-02-09T22:22:40.176Z,78.50
2019-02-09T22:25:10.982Z,78.70
2019-02-09T22:27:38.683Z,78.90
2019-02-09T22:30:07.755Z,79.00
2019-02-09T22:32:34.993Z,79.30
2019-02-09T22:35:02.155Z,79.30
2019-02-09T22:37:29.652Z,79.30
2019-02-09T22:39:57.513Z,78.90
2019-02-09T22:42:26.557Z,79.00
2019-02-09T22:44:54.968Z,79.20
2019-02-09T22:47:23.339Z,79.30
2019-02-09T22:49:50.313Z,79.00
2019-02-09T22:52:17.403Z,78.90
2019-02-09T22:54:45.317Z,78.90
2019-02-09T22:57:12.399Z,78.70
2019-02-09T22:59:39.919Z,78.70
2019-02-09T23:02:07.307Z,78.80
2019-02-09T23:04:58.248Z,78.80
2019-02-09T23:07:31.480Z,78.90
2019-02-09T23:09:59.852Z,78.80
2019-02-09T23:12:28.967Z,79.00
2019-02-09T23:14:56.218Z,79.20
2019-02-09T23:17:23.948Z,79.00
2019-02-09T23:19:52.471Z,79.20
2019-02-09T23:22:20.207Z,79.20
2019-02-09T23:24:47.967Z,79.40
2019-02-09T23:27:15.279Z,79.50
2019-02-09T23:29:42.420Z,79.60
2019-02-09T23:32:10.412Z,79.50
2019-02-09T23:34:38.312Z,79.50
2019-02-09T23:37:07.059Z,79.70
2019-02-09T23:39:35.019Z,79.90
2019-02-09T23:42:02.434Z,79.70
2019-02-09T23:44:30.279Z,79.60
2019-02-09T23:46:58.593Z,79.70
2019-02-09T23:49:25.695Z,79.60
2019-02-09T23:51:53.196Z,79.50
2019-02-09T23:54:20.135Z,79.60
2019-02-09T23:56:47.330Z,79.70
2019-02-09T23:59:16.375Z,80.00
